createdAt,value
2022-08-19T00:02:14.140Z,83.05
2022-08-19T00:04:41.314Z,83.10
2022-08-19T00:07:08.543Z,83.18
2022-08-19T00:09:35.799Z,83.39
2022-08-19T00:12:05.119Z,83.32
2022-08-19T00:14:33.215Z,83.08
2022-08-19T00:17:01.043Z,83.24
2022-08-19T00:19:28.274Z,83.14
2022-08-19T00:21:57.362Z,82.96
2022-08-19T00:24:25.007Z,83.32
2022-08-19T00:26:52.820Z,83.02
2022-08-19T00:29:21.912Z,83.32
2022-08-19T00:31:50.689Z,83.33
2022-08-19T00:34:17.858Z,83.06
2022-08-19T00:36:45.674Z,83.12
2022-08-19T00:39:14.029Z,82.81
2022-08-19T00:41:42.448Z,83.06
2022-08-19T00:44:17.106Z,83.01
2022-08-19T00:46:55.472Z,83.09
2022-08-19T00:49:52.389Z,83.05
2022-08-19T00:52:24.820Z,83.23
2022-08-19T00:54:53.968Z,83.07
2022-08-19T00:57:27.813Z,83.30
2022-08-19T01:00:02.569Z,83.04
2022-08-19T01:02:31.805Z,83.29
2022-08-19T01:05:00.333Z,83.00
2022-08-19T01:07:27.728Z,83.13
2022-08-19T01:09:55.058Z,83.04
2022-08-19T01:12:22.722Z,82.71
2022-08-19T01:14:51.196Z,83.05
2022-08-19T01:17:20.167Z,82.62
2022-08-19T01:19:48.072Z,82.66
2022-08-19T01:22:33.634Z,82.53
2022-08-19T01:25:02.406Z,82.91
2022-08-19T01:27:44.052Z,82.69
2022-08-19T01:30:20.578Z,82.99
2022-08-19T01:32:47.572Z,82.64
2022-08-19T01:35:18.023Z,83.17
2022-08-19T01:37:52.991Z,83.14
2022-08-19T01:40:22.585Z,83.27
2022-08-19T01:42:58.502Z,83.25
2022-08-19T01:45:27.891Z,83.33
2022-08-19T01:48:02.011Z,83.52
2022-08-19T01:50:30.597Z,83.50
2022-08-19T01:53:06.227Z,83.06
2022-08-19T01:55:41.075Z,83.42
2022-08-19T01:58:16.099Z,83.13
2022-08-19T02:00:44.409Z,83.43
2022-08-19T02:03:12.543Z,83.21
2022-08-19T02:05:43.009Z,83.55
2022-08-19T02:08:11.646Z,83.40
2022-08-19T02:10:44.517Z,83.61
2022-08-19T02:13:14.582Z,83.35
2022-08-19T02:15:42.707Z,83.40
2022-08-19T02:18:10.057Z,83.41
2022-08-19T02:20:39.643Z,83.73
2022-08-19T02:23:14.006Z,84.08
2022-08-19T02:25:48.953Z,84.08
2022-08-19T02:28:18.735Z,84.38
2022-08-19T02:30:47.725Z,83.78
2022-08-19T02:33:15.013Z,84.15
2022-08-19T02:35:44.143Z,83.72
2022-08-19T02:38:26.795Z,83.76
2022-08-19T02:40:57.510Z,83.68
2022-08-19T02:43:25.654Z,83.77
2022-08-19T02:45:53.079Z,83.62
2022-08-19T02:48:22.049Z,83.36
2022-08-19T02:50:56.379Z,83.43
2022-08-19T02:53:27.867Z,83.37
2022-08-19T02:55:55.810Z,83.12
2022-08-19T02:58:25.195Z,83.54
2022-08-19T03:00:55.297Z,83.51
2022-08-19T03:03:22.886Z,83.21
2022-08-19T03:05:56.962Z,83.41
2022-08-19T03:08:26.216Z,83.29
2022-08-19T03:10:55.011Z,83.46
2022-08-19T03:13:22.556Z,83.20
2022-08-19T03:15:50.204Z,83.27
2022-08-19T03:18:18.330Z,82.77
2022-08-19T03:20:48.247Z,82.61
2022-08-19T03:23:17.422Z,82.57
2022-08-19T03:25:47.099Z,82.66
2022-08-19T03:28:26.042Z,82.15
2022-08-19T03:31:05.319Z,82.08
2022-08-19T03:33:53.084Z,82.00
2022-08-19T03:36:26.330Z,82.21
2022-08-19T03:38:59.700Z,81.79
2022-08-19T03:41:44.670Z,81.46
2022-08-19T03:44:19.650Z,81.56
2022-08-19T03:46:50.247Z,80.75
2022-08-19T03:49:18.775Z,80.53
2022-08-19T03:51:48.905Z,80.48
2022-08-19T03:54:18.565Z,80.94
2022-08-19T03:56:48.175Z,79.70
2022-08-19T03:59:23.346Z,79.42
2022-08-19T04:01:54.941Z,77.99
2022-08-19T04:04:22.684Z,77.68
2022-08-19T04:06:50.317Z,78.33
2022-08-19T04:09:17.688Z,77.91
2022-08-19T04:11:51.079Z,77.34
2022-08-19T04:14:23.328Z,75.57
2022-08-19T04:16:58.171Z,74.04
2022-08-19T04:19:27.021Z,72.01
2022-08-19T04:21:55.379Z,70.55
2022-08-19T04:24:23.821Z,70.62
2022-08-19T04:26:54.225Z,69.23
2022-08-19T04:29:28.778Z,68.28
2022-08-19T04:31:57.811Z,67.89
2022-08-19T04:34:29.398Z,67.15
2022-08-19T04:36:59.696Z,66.18
2022-08-19T04:39:49.649Z,65.46
2022-08-19T04:42:37.241Z,64.66
2022-08-19T04:45:09.443Z,64.33
2022-08-19T04:47:47.891Z,64.17
2022-08-19T04:50:27.931Z,64.13
2022-08-19T04:52:56.783Z,62.92
2022-08-19T04:55:26.760Z,62.07
2022-08-19T04:57:55.690Z,61.34
2022-08-19T05:00:24.643Z,60.38
2022-08-19T05:02:53.750Z,59.24
2022-08-19T05:05:20.929Z,59.04
2022-08-19T05:07:48.365Z,59.22
2022-08-19T05:10:18.055Z,56.90
2022-08-19T05:12:45.138Z,57.57
2022-08-19T05:15:15.680Z,58.75
2022-08-19T05:18:03.751Z,58.26
2022-08-19T05:20:50.102Z,56.55
2022-08-19T05:23:21.880Z,56.09
2022-08-19T05:25:54.526Z,56.02
2022-08-19T05:28:26.016Z,56.85
2022-08-19T05:30:56.595Z,58.48
2022-08-19T05:33:27.687Z,58.90
2022-08-19T05:35:57.104Z,60.00
2022-08-19T05:38:24.188Z,60.71
2022-08-19T05:40:51.187Z,62.01
2022-08-19T05:43:20.754Z,62.18
2022-08-19T05:46:03.319Z,62.55
2022-08-19T05:48:32.784Z,63.83
2022-08-19T05:51:09.441Z,64.17
2022-08-19T05:53:36.759Z,64.38
2022-08-19T05:56:10.504Z,64.63
2022-08-19T05:58:42.015Z,64.48
2022-08-19T06:01:19.368Z,64.96
2022-08-19T06:03:50.062Z,65.60
2022-08-19T06:06:18.373Z,65.78
2022-08-19T06:08:53.173Z,65.80
2022-08-19T06:11:59.336Z,65.42
2022-08-19T06:14:31.697Z,65.26
2022-08-19T06:17:07.029Z,66.14
2022-08-19T06:19:34.832Z,66.33
2022-08-19T06:22:16.475Z,66.20
2022-08-19T06:24:48.711Z,66.64
2022-08-19T06:27:17.952Z,66.70
2022-08-19T06:29:46.055Z,66.77
2022-08-19T06:32:17.494Z,66.96
2022-08-19T06:34:48.658Z,66.58
2022-08-19T06:37:16.134Z,66.84
2022-08-19T06:39:45.116Z,67.17
2022-08-19T06:42:14.434Z,66.60
2022-08-19T06:44:43.799Z,66.36
2022-08-19T06:47:23.487Z,66.63
2022-08-19T06:50:05.818Z,66.23
2022-08-19T06:52:47.860Z,66.44
2022-08-19T06:55:16.868Z,66.22
2022-08-19T06:57:49.354Z,66.31
2022-08-19T07:00:17.095Z,66.21
2022-08-19T07:02:50.601Z,65.86
2022-08-19T07:05:28.138Z,65.33
2022-08-19T07:07:57.592Z,64.64
2022-08-19T07:10:27.421Z,64.17
2022-08-19T07:12:55.921Z,64.90
2022-08-19T07:15:24.899Z,65.14
2022-08-19T07:17:53.266Z,64.06
2022-08-19T07:20:22.174Z,63.68
2022-08-19T07:22:59.602Z,63.02
2022-08-19T07:25:32.505Z,62.60
2022-08-19T07:28:01.481Z,62.52
2022-08-19T07:30:28.999Z,63.10
2022-08-19T07:32:58.628Z,63.40
2022-08-19T07:35:26.030Z,62.73
2022-08-19T07:37:54.365Z,63.01
2022-08-19T07:40:29.155Z,62.06
2022-08-19T07:42:56.823Z,61.96
2022-08-19T07:45:24.675Z,58.98
2022-08-19T07:47:52.170Z,58.06
2022-08-19T07:50:24.404Z,57.96
2022-08-19T07:52:55.769Z,58.12
2022-08-19T07:55:41.390Z,57.90
2022-08-19T07:58:17.582Z,58.13
2022-08-19T08:00:48.531Z,57.11
2022-08-19T08:03:20.393Z,55.90
2022-08-19T08:06:06.690Z,54.89
2022-08-19T08:08:52.864Z,54.79
2022-08-19T08:11:24.008Z,54.17
2022-08-19T08:14:00.313Z,55.26
2022-08-19T08:19:40.821Z,53.61
2022-08-19T08:22:33.257Z,52.98
2022-08-19T08:25:11.323Z,52.46
2022-08-19T08:27:43.401Z,49.49
2022-08-19T08:33:19.255Z,46.93
2022-08-19T08:36:09.250Z,44.02
2022-08-19T08:38:41.255Z,40.48
2022-08-19T08:41:48.714Z,40.39
2022-08-19T08:44:22.029Z,39.98
2022-08-19T08:47:01.877Z,39.18
2022-08-19T08:49:43.626Z,40.36
2022-08-19T08:52:24.886Z,39.03
2022-08-19T08:55:10.114Z,38.44
2022-08-19T08:58:06.725Z,37.67
2022-08-19T09:00:43.804Z,38.84
2022-08-19T09:03:20.348Z,38.52
2022-08-19T09:06:21.143Z,38.18
2022-08-19T09:09:11.854Z,37.79
2022-08-19T09:11:46.614Z,37.51
2022-08-19T09:14:49.846Z,37.41
2022-08-19T09:17:19.004Z,36.84
2022-08-19T09:20:09.919Z,36.52
2022-08-19T09:22:45.083Z,34.79
2022-08-19T09:25:16.720Z,35.98
2022-08-19T09:27:44.369Z,36.04
2022-08-19T09:30:15.168Z,36.31
2022-08-19T09:33:05.913Z,35.99
2022-08-19T09:35:33.505Z,34.94
2022-08-19T09:38:17.653Z,35.42
2022-08-19T09:40:45.926Z,35.17
2022-08-19T09:43:15.020Z,33.58
2022-08-19T09:46:04.019Z,33.09
2022-08-19T09:48:34.388Z,35.03
2022-08-19T09:51:17.707Z,34.74
2022-08-19T09:53:46.269Z,34.05
2022-08-19T09:56:14.636Z,33.32
2022-08-19T09:58:41.759Z,31.75
2022-08-19T10:01:12.324Z,31.88
2022-08-19T10:04:00.092Z,30.09
2022-08-19T10:06:38.221Z,30.42
2022-08-19T10:09:16.301Z,29.88
2022-08-19T10:11:55.356Z,30.62
2022-08-19T10:14:24.717Z,30.04
2022-08-19T10:16:53.118Z,29.33
2022-08-19T10:19:25.891Z,30.38
2022-08-19T10:22:00.197Z,30.66
2022-08-19T10:24:29.165Z,30.31
2022-08-19T10:26:59.771Z,29.65
2022-08-19T10:29:33.546Z,34.32
2022-08-19T10:32:03.551Z,33.99
2022-08-19T10:34:31.796Z,35.23
2022-08-19T10:37:03.048Z,34.83
2022-08-19T10:39:43.536Z,36.26
2022-08-19T10:42:26.159Z,38.02
2022-08-19T10:44:53.843Z,37.08
2022-08-19T10:47:26.049Z,36.59
2022-08-19T10:50:17.414Z,38.11
2022-08-19T10:52:49.560Z,37.80
2022-08-19T10:55:40.338Z,37.50
2022-08-19T10:58:16.000Z,38.42
2022-08-19T11:00:47.128Z,38.21
2022-08-19T11:03:14.557Z,38.47
2022-08-19T11:05:42.408Z,38.46
2022-08-19T11:08:23.402Z,37.13
2022-08-19T11:11:00.331Z,37.17
2022-08-19T11:13:30.025Z,38.13
2022-08-19T11:16:07.410Z,38.76
2022-08-19T11:18:44.617Z,40.09
2022-08-19T11:21:20.415Z,39.83
2022-08-19T11:23:50.293Z,39.25
2022-08-19T11:26:18.609Z,39.18
2022-08-19T11:28:46.022Z,38.52
2022-08-19T11:31:19.669Z,38.28
2022-08-19T11:33:47.996Z,39.30
2022-08-19T11:36:16.369Z,38.33
2022-08-19T11:38:45.183Z,38.38
2022-08-19T11:41:12.454Z,39.60
2022-08-19T11:43:41.029Z,39.73
2022-08-19T11:46:10.976Z,40.15
2022-08-19T11:48:39.131Z,40.54
2022-08-19T11:51:09.803Z,41.45
2022-08-19T11:53:37.829Z,41.61
2022-08-19T11:56:05.688Z,41.10
2022-08-19T11:58:33.490Z,41.66
2022-08-19T12:01:00.752Z,40.63
2022-08-19T12:03:29.073Z,40.17
2022-08-19T12:05:56.525Z,41.48
2022-08-19T12:08:23.773Z,40.98
2022-08-19T12:10:50.889Z,41.72
2022-08-19T12:13:19.940Z,41.03
2022-08-19T12:15:48.941Z,41.88
2022-08-19T12:18:16.218Z,40.84
2022-08-19T12:20:44.245Z,39.51
2022-08-19T12:23:11.910Z,40.73
2022-08-19T12:25:51.013Z,40.37
2022-08-19T12:28:21.312Z,40.67
2022-08-19T12:30:52.124Z,41.24
2022-08-19T12:33:25.131Z,39.83
2022-08-19T12:35:53.106Z,40.97
2022-08-19T12:38:20.762Z,41.16
2022-08-19T12:40:48.360Z,39.63
2022-08-19T12:43:16.998Z,39.76
2022-08-19T12:45:44.798Z,39.91
2022-08-19T12:48:33.325Z,39.46
2022-08-19T12:51:11.177Z,40.08
2022-08-19T12:53:39.039Z,40.70
2022-08-19T12:56:23.368Z,41.09
2022-08-19T12:58:53.078Z,39.30
2022-08-19T13:01:24.216Z,39.96
2022-08-19T13:03:54.918Z,40.04
2022-08-19T13:06:23.965Z,40.38
2022-08-19T13:11:36.361Z,40.94
2022-08-19T13:14:04.841Z,40.95
2022-08-19T13:16:32.532Z,40.98
2022-08-19T13:18:59.868Z,39.95
2022-08-19T13:21:31.916Z,39.30
2022-08-19T13:24:05.122Z,40.02
2022-08-19T13:26:35.220Z,39.54
2022-08-19T13:29:20.795Z,40.24
2022-08-19T13:32:17.666Z,41.06
2022-08-19T13:34:48.426Z,41.09
2022-08-19T13:37:15.827Z,40.29
2022-08-19T13:39:42.910Z,39.92
2022-08-19T13:42:11.578Z,39.27
2022-08-19T13:44:38.909Z,39.11
2022-08-19T13:47:07.904Z,39.67
2022-08-19T13:49:37.349Z,39.17
2022-08-19T13:52:06.567Z,38.75
2022-08-19T13:57:16.637Z,39.92
2022-08-19T13:59:43.665Z,39.29
2022-08-19T14:02:11.814Z,39.03
2022-08-19T14:04:39.137Z,38.45
2022-08-19T14:07:06.164Z,37.84
2022-08-19T14:09:33.182Z,38.12
2022-08-19T14:12:00.548Z,39.13
2022-08-19T14:14:27.605Z,38.89
2022-08-19T14:16:54.601Z,37.98
2022-08-19T14:19:22.436Z,37.82
2022-08-19T14:21:51.452Z,37.53
2022-08-19T14:24:18.443Z,38.12
2022-08-19T14:26:45.808Z,37.57
2022-08-19T14:29:14.002Z,37.93
2022-08-19T14:31:43.687Z,37.55
2022-08-19T14:34:11.561Z,37.71
2022-08-19T14:36:40.295Z,36.86
2022-08-19T14:39:34.269Z,36.80
2022-08-19T14:42:11.411Z,37.93
2022-08-19T14:44:39.074Z,37.11
2022-08-19T14:47:08.775Z,37.05
2022-08-19T14:49:42.342Z,37.43
2022-08-19T14:52:13.501Z,36.74
2022-08-19T14:54:46.368Z,37.40
2022-08-19T14:57:17.902Z,37.57
2022-08-19T14:59:45.167Z,37.45
2022-08-19T15:02:34.297Z,37.60
2022-08-19T15:05:02.681Z,37.17
2022-08-19T15:07:33.285Z,37.43
2022-08-19T15:10:07.872Z,37.38
2022-08-19T15:12:40.512Z,37.02
2022-08-19T15:15:14.299Z,37.61
2022-08-19T15:17:46.561Z,37.64
2022-08-19T15:20:19.552Z,37.48
2022-08-19T15:22:49.262Z,37.15
2022-08-19T15:25:19.742Z,37.87
2022-08-19T15:27:47.432Z,38.04
2022-08-19T15:30:22.141Z,37.89
2022-08-19T15:32:53.606Z,38.39
2022-08-19T15:35:23.460Z,38.47
2022-08-19T15:37:52.376Z,38.97
2022-08-19T15:40:21.125Z,39.11
2022-08-19T15:42:50.067Z,38.99
2022-08-19T15:45:23.601Z,39.03
2022-08-19T15:48:08.195Z,39.48
2022-08-19T15:50:36.000Z,39.67
2022-08-19T15:53:09.480Z,39.82
2022-08-19T15:55:42.726Z,40.60
2022-08-19T15:58:33.679Z,40.33
2022-08-19T16:01:26.907Z,40.80
2022-08-19T16:04:15.924Z,40.92
2022-08-19T16:06:52.902Z,40.93
2022-08-19T16:09:27.631Z,41.00
2022-08-19T16:12:06.031Z,41.56
2022-08-19T16:14:35.596Z,41.43
2022-08-19T16:17:15.471Z,42.35
2022-08-19T16:19:52.603Z,42.52
2022-08-19T16:22:19.877Z,42.23
2022-08-19T16:24:47.460Z,42.24
2022-08-19T16:27:16.195Z,42.69
2022-08-19T16:29:43.270Z,42.63
2022-08-19T16:32:12.155Z,43.36
2022-08-19T16:34:43.837Z,43.10
2022-08-19T16:37:10.905Z,43.95
2022-08-19T16:39:43.666Z,44.55
2022-08-19T16:42:12.175Z,45.19
2022-08-19T16:44:47.519Z,45.78
2022-08-19T16:47:18.088Z,45.98
2022-08-19T16:49:54.540Z,46.59
2022-08-19T16:52:27.109Z,46.75
2022-08-19T16:54:55.718Z,47.41
2022-08-19T16:57:27.054Z,47.52
2022-08-19T16:59:55.200Z,48.02
2022-08-19T17:02:30.465Z,48.31
2022-08-19T17:05:01.199Z,48.34
2022-08-19T17:07:33.572Z,49.14
2022-08-19T17:10:02.610Z,50.12
2022-08-19T17:12:31.958Z,50.93
2022-08-19T17:15:04.093Z,51.46
2022-08-19T17:17:33.532Z,51.85
2022-08-19T17:20:02.880Z,53.28
2022-08-19T17:22:36.881Z,53.72
2022-08-19T17:25:07.721Z,54.50
2022-08-19T17:27:34.832Z,54.91
2022-08-19T17:30:06.877Z,54.99
2022-08-19T17:32:37.226Z,55.35
2022-08-19T17:35:07.359Z,55.53
2022-08-19T17:37:38.733Z,56.34
2022-08-19T17:40:09.217Z,57.18
2022-08-19T17:42:37.223Z,57.76
2022-08-19T17:45:05.589Z,58.94
2022-08-19T17:47:36.135Z,59.81
2022-08-19T17:50:13.246Z,61.50
2022-08-19T17:52:52.497Z,61.82
2022-08-19T17:55:20.983Z,62.23
2022-08-19T17:57:52.971Z,62.78
2022-08-19T18:00:22.000Z,63.13
2022-08-19T18:02:54.262Z,63.79
2022-08-19T18:05:29.653Z,64.10
2022-08-19T18:07:58.583Z,64.28
2022-08-19T18:10:31.447Z,64.77
2022-08-19T18:13:02.442Z,64.59
2022-08-19T18:15:45.541Z,64.31
2022-08-19T18:18:14.914Z,63.48
2022-08-19T18:20:44.292Z,63.97
2022-08-19T18:23:43.780Z,64.84
2022-08-19T18:25:58.779Z,64.93
2022-08-19T18:28:27.051Z,64.10
2022-08-19T18:30:54.107Z,63.17
2022-08-19T18:33:47.030Z,63.13
2022-08-19T18:36:14.272Z,63.21
2022-08-19T18:39:02.868Z,62.85
2022-08-19T18:41:54.480Z,62.75
2022-08-19T18:44:41.377Z,63.27
2022-08-19T18:47:36.122Z,62.83
2022-08-19T18:50:11.793Z,63.70
2022-08-19T18:52:40.107Z,63.93
2022-08-19T18:55:09.149Z,64.44
2022-08-19T18:57:36.525Z,63.88
2022-08-19T19:00:05.586Z,63.45
2022-08-19T19:02:39.107Z,63.24
2022-08-19T19:05:10.424Z,63.26
2022-08-19T19:07:42.914Z,63.26
2022-08-19T19:10:11.348Z,63.37
2022-08-19T19:12:43.621Z,63.19
2022-08-19T19:15:12.070Z,63.41
2022-08-19T19:17:42.840Z,63.20
2022-08-19T19:20:10.084Z,63.49
2022-08-19T19:22:40.218Z,63.23
2022-08-19T19:25:15.260Z,63.35
2022-08-19T19:27:46.124Z,62.91
2022-08-19T19:30:16.064Z,62.93
2022-08-19T19:32:43.117Z,62.79
2022-08-19T19:37:57.315Z,62.60
2022-08-19T19:40:24.479Z,62.53
2022-08-19T19:42:52.120Z,62.52
2022-08-19T19:45:25.178Z,62.81
2022-08-19T19:47:57.688Z,62.77
2022-08-19T19:50:31.709Z,62.29
2022-08-19T19:53:21.064Z,63.13
2022-08-19T19:55:50.986Z,62.96
2022-08-19T19:58:21.251Z,62.77
2022-08-19T20:01:01.576Z,62.58
2022-08-19T20:03:36.426Z,62.81
2022-08-19T20:06:03.674Z,62.74
2022-08-19T20:08:55.349Z,62.72
2022-08-19T20:11:41.467Z,63.08
2022-08-19T20:14:16.332Z,63.19
2022-08-19T20:16:48.191Z,62.99
2022-08-19T20:19:21.257Z,63.34
2022-08-19T20:22:14.062Z,63.25
2022-08-19T20:24:45.390Z,63.88
2022-08-19T20:27:12.951Z,63.19
2022-08-19T20:29:44.428Z,63.39
2022-08-19T20:32:15.764Z,64.06
2022-08-19T20:34:44.799Z,63.48
2022-08-19T20:37:14.993Z,62.36
2022-08-19T20:39:42.557Z,61.96
2022-08-19T20:42:13.408Z,61.41
2022-08-19T20:44:44.740Z,61.34
2022-08-19T20:47:12.460Z,60.48
2022-08-19T20:49:42.712Z,60.40
2022-08-19T20:52:10.637Z,60.42
2022-08-19T20:54:41.775Z,60.49
2022-08-19T20:57:08.881Z,60.48
2022-08-19T20:59:40.785Z,60.49
2022-08-19T21:02:14.860Z,60.10
2022-08-19T21:04:46.285Z,60.17
2022-08-19T21:07:17.757Z,60.24
2022-08-19T21:09:44.827Z,60.08
2022-08-19T21:12:13.112Z,60.21
2022-08-19T21:14:47.228Z,60.12
2022-08-19T21:17:17.306Z,60.43
2022-08-19T21:19:44.733Z,60.92
2022-08-19T21:22:11.772Z,61.16
2022-08-19T21:24:43.233Z,61.76
2022-08-19T21:27:12.603Z,62.37
2022-08-19T21:29:43.335Z,62.33
2022-08-19T21:32:14.067Z,62.85
2022-08-19T21:34:46.666Z,62.96
2022-08-19T21:37:25.397Z,63.61
2022-08-19T21:39:54.877Z,63.66
2022-08-19T21:42:25.749Z,64.15
2022-08-19T21:44:53.406Z,64.04
2022-08-19T21:47:23.191Z,64.57
2022-08-19T21:49:50.964Z,64.90
2022-08-19T21:52:35.009Z,65.23
2022-08-19T21:55:07.811Z,65.62
2022-08-19T21:57:41.320Z,65.61
2022-08-19T22:00:25.543Z,65.65
2022-08-19T22:02:53.129Z,66.03
2022-08-19T22:05:23.299Z,65.63
2022-08-19T22:07:51.791Z,65.58
2022-08-19T22:10:32.857Z,65.33
2022-08-19T22:12:59.970Z,65.31
2022-08-19T22:15:32.166Z,65.35
2022-08-19T22:18:03.586Z,64.86
2022-08-19T22:20:32.808Z,65.19
2022-08-19T22:23:06.683Z,66.27
2022-08-19T22:25:45.606Z,67.19
2022-08-19T22:28:14.605Z,67.32
2022-08-19T22:30:51.209Z,67.96
2022-08-19T22:33:22.456Z,67.80
2022-08-19T22:35:54.503Z,67.54
2022-08-19T22:38:23.022Z,67.78
2022-08-19T22:40:54.055Z,67.64
2022-08-19T22:43:26.910Z,67.41
2022-08-19T22:45:58.745Z,67.36
2022-08-19T22:48:28.374Z,67.64
2022-08-19T22:51:19.448Z,67.65
2022-08-19T22:53:47.791Z,67.75
2022-08-19T22:56:19.666Z,68.11
2022-08-19T22:58:54.423Z,67.83
2022-08-19T23:01:30.368Z,68.37
2022-08-19T23:04:03.854Z,68.17
2022-08-19T23:06:38.145Z,68.73
2022-08-19T23:09:11.230Z,69.30
2022-08-19T23:11:46.510Z,69.11
2022-08-19T23:14:17.111Z,69.33
2022-08-19T23:16:50.436Z,69.12
2022-08-19T23:19:19.388Z,68.91
2022-08-19T23:21:49.616Z,69.23
2022-08-19T23:24:17.060Z,69.10
2022-08-19T23:27:04.545Z,68.94
2022-08-19T23:29:54.426Z,69.33
2022-08-19T23:32:23.651Z,69.60
2022-08-19T23:34:55.399Z,69.59
2022-08-19T23:37:22.618Z,69.71
2022-08-19T23:39:50.966Z,70.09
2022-08-19T23:42:18.496Z,70.01
2022-08-19T23:44:52.312Z,70.34
2022-08-19T23:47:22.200Z,70.31
2022-08-19T23:49:49.834Z,70.74
2022-08-19T23:52:16.811Z,70.91
2022-08-19T23:54:44.126Z,70.69
2022-08-19T23:57:13.697Z,70.76
2022-08-19T23:59:45.674Z,70.72
